Terminal Aerodrome Forecast
Issued by NWS

Home | Current Version | Previous Version | Graphics & Text | Print | Product List | Glossary On
Versions: 1 2 3 4 5 6 7 8 9 10 11 12 13 14
000
FTUS43 KTOP 020822 AAA
TAFMHK
TAF AMD
KMHK 020822Z 0208/0306 34004KT P6SM SCT025 BKN035
      TEMPO 0208/0212 BKN025
     FM021900 35005KT P6SM BKN040=

USA.gov is the U.S. government's official web portal to all federal, state and local government web resources and services.